sensor_id;sensor_type;location;lat;lon;timestamp;pressure;altitude;pressure_sealevel;temperature;humidity
54172;BME280;40076;52.354;4.970;2022-08-07T00:00:09;102766.72;;;17.69;63.91
54172;BME280;40076;52.354;4.970;2022-08-07T00:02:35;102759.94;;;17.67;63.90
54172;BME280;40076;52.354;4.970;2022-08-07T00:05:00;102758.66;;;17.64;63.97
54172;BME280;40076;52.354;4.970;2022-08-07T00:07:26;102760.91;;;17.62;64.07
54172;BME280;40076;52.354;4.970;2022-08-07T00:09:51;102759.31;;;17.61;64.41
54172;BME280;40076;52.354;4.970;2022-08-07T00:12:16;102756.06;;;17.59;64.50
54172;BME280;40076;52.354;4.970;2022-08-07T00:14:42;102752.81;;;17.57;64.50
54172;BME280;40076;52.354;4.970;2022-08-07T00:17:07;102750.41;;;17.56;64.61
54172;BME280;40076;52.354;4.970;2022-08-07T00:19:32;102744.47;;;17.54;64.51
54172;BME280;40076;52.354;4.970;2022-08-07T00:21:58;102752.69;;;17.54;64.64
54172;BME280;40076;52.354;4.970;2022-08-07T00:24:23;102751.69;;;17.50;64.80
54172;BME280;40076;52.354;4.970;2022-08-07T00:26:48;102750.38;;;17.47;65.01
54172;BME280;40076;52.354;4.970;2022-08-07T00:29:15;102751.19;;;17.48;65.26
54172;BME280;40076;52.354;4.970;2022-08-07T00:31:42;102750.38;;;17.47;65.26
54172;BME280;40076;52.354;4.970;2022-08-07T00:34:07;102753.78;;;17.44;65.32
54172;BME280;40076;52.354;4.970;2022-08-07T00:36:32;102761.97;;;17.44;65.56
54172;BME280;40076;52.354;4.970;2022-08-07T00:38:58;102753.28;;;17.42;65.64
54172;BME280;40076;52.354;4.970;2022-08-07T00:41:31;102761.47;;;17.42;65.75
54172;BME280;40076;52.354;4.970;2022-08-07T00:43:56;102752.16;;;17.43;65.81
54172;BME280;40076;52.354;4.970;2022-08-07T00:46:21;102753.28;;;17.42;65.78
54172;BME280;40076;52.354;4.970;2022-08-07T00:48:47;102752.97;;;17.44;65.76
54172;BME280;40076;52.354;4.970;2022-08-07T00:51:12;102754.09;;;17.43;65.79
54172;BME280;40076;52.354;4.970;2022-08-07T00:53:38;102756.81;;;17.43;65.64
54172;BME280;40076;52.354;4.970;2022-08-07T00:56:03;102751.34;;;17.43;65.57
54172;BME280;40076;52.354;4.970;2022-08-07T00:58:30;102736.88;;;17.42;65.56
54172;BME280;40076;52.354;4.970;2022-08-07T01:00:59;102736.09;;;17.42;65.50
54172;BME280;40076;52.354;4.970;2022-08-07T01:03:24;102740.44;;;17.43;65.53
54172;BME280;40076;52.354;4.970;2022-08-07T01:05:50;102735.28;;;17.41;65.56
54172;BME280;40076;52.354;4.970;2022-08-07T01:08:19;102740.75;;;17.41;65.50
54172;BME280;40076;52.354;4.970;2022-08-07T01:10:45;102736.75;;;17.39;65.57
54172;BME280;40076;52.354;4.970;2022-08-07T01:13:10;102732.38;;;17.38;65.54
54172;BME280;40076;52.354;4.970;2022-08-07T01:15:35;102729.97;;;17.36;65.58
54172;BME280;40076;52.354;4.970;2022-08-07T01:18:01;102734.94;;;17.34;65.50
54172;BME280;40076;52.354;4.970;2022-08-07T01:20:32;102736.06;;;17.33;65.77
54172;BME280;40076;52.354;4.970;2022-08-07T01:23:00;102731.25;;;17.30;65.82
54172;BME280;40076;52.354;4.970;2022-08-07T01:25:26;102733.50;;;17.28;65.76
54172;BME280;40076;52.354;4.970;2022-08-07T01:27:52;102733.31;;;17.24;65.87
54172;BME280;40076;52.354;4.970;2022-08-07T01:30:17;102737.19;;;17.23;65.88
54172;BME280;40076;52.354;4.970;2022-08-07T01:32:43;102733.97;;;17.21;65.97
54172;BME280;40076;52.354;4.970;2022-08-07T01:35:08;102733.47;;;17.19;66.18
54172;BME280;40076;52.354;4.970;2022-08-07T01:37:34;102735.69;;;17.17;66.20
54172;BME280;40076;52.354;4.970;2022-08-07T01:39:59;102735.22;;;17.15;66.09
54172;BME280;40076;52.354;4.970;2022-08-07T01:42:26;102726.53;;;17.13;66.28
54172;BME280;40076;52.354;4.970;2022-08-07T01:44:52;102732.00;;;17.13;66.25
54172;BME280;40076;52.354;4.970;2022-08-07T01:47:17;102724.13;;;17.12;66.16
54172;BME280;40076;52.354;4.970;2022-08-07T01:49:44;102732.63;;;17.10;66.44
54172;BME280;40076;52.354;4.970;2022-08-07T01:52:09;102720.09;;;17.09;66.50
54172;BME280;40076;52.354;4.970;2022-08-07T01:54:39;102723.47;;;17.06;66.79
54172;BME280;40076;52.354;4.970;2022-08-07T01:57:23;102722.16;;;17.04;66.34
54172;BME280;40076;52.354;4.970;2022-08-07T02:00:05;102722.47;;;17.02;66.48
54172;BME280;40076;52.354;4.970;2022-08-07T02:02:36;102722.81;;;17.01;66.73
54172;BME280;40076;52.354;4.970;2022-08-07T02:05:05;102722.81;;;17.01;66.77
54172;BME280;40076;52.354;4.970;2022-08-07T02:07:35;102720.41;;;16.99;66.92
54172;BME280;40076;52.354;4.970;2022-08-07T02:10:02;102725.06;;;16.98;66.87
54172;BME280;40076;52.354;4.970;2022-08-07T02:12:33;102719.41;;;16.95;66.90
54172;BME280;40076;52.354;4.970;2022-08-07T02:15:00;102720.06;;;16.92;67.14
54172;BME280;40076;52.354;4.970;2022-08-07T02:17:27;102718.75;;;16.89;67.30
54172;BME280;40076;52.354;4.970;2022-08-07T02:19:53;102724.53;;;16.88;67.38
54172;BME280;40076;52.354;4.970;2022-08-07T02:22:21;102722.09;;;16.86;67.69
54172;BME280;40076;52.354;4.970;2022-08-07T02:24:49;102715.88;;;16.86;67.76
54172;BME280;40076;52.354;4.970;2022-08-07T02:27:18;102711.81;;;16.83;67.79
54172;BME280;40076;52.354;4.970;2022-08-07T02:29:46;102702.84;;;16.83;67.78
54172;BME280;40076;52.354;4.970;2022-08-07T02:32:13;102710.22;;;16.82;67.79
54172;BME280;40076;52.354;4.970;2022-08-07T02:34:41;102710.53;;;16.81;67.79
54172;BME280;40076;52.354;4.970;2022-08-07T02:37:08;102715.19;;;16.80;67.70
54172;BME280;40076;52.354;4.970;2022-08-07T02:39:39;102713.09;;;16.77;67.78
54172;BME280;40076;52.354;4.970;2022-08-07T02:42:07;102713.41;;;16.76;67.88
54172;BME280;40076;52.354;4.970;2022-08-07T02:44:34;102712.09;;;16.73;67.96
54172;BME280;40076;52.354;4.970;2022-08-07T02:47:01;102708.06;;;16.71;67.94
54172;BME280;40076;52.354;4.970;2022-08-07T02:49:27;102710.31;;;16.69;68.09
54172;BME280;40076;52.354;4.970;2022-08-07T02:51:55;102707.91;;;16.67;68.14
54172;BME280;40076;52.354;4.970;2022-08-07T02:54:22;102701.13;;;16.65;68.16
54172;BME280;40076;52.354;4.970;2022-08-07T02:56:50;102704.19;;;16.63;68.46
54172;BME280;40076;52.354;4.970;2022-08-07T02:59:18;102700.16;;;16.61;68.73
54172;BME280;40076;52.354;4.970;2022-08-07T03:01:45;102708.34;;;16.61;68.68
54172;BME280;40076;52.354;4.970;2022-08-07T03:04:12;102704.28;;;16.58;68.71
54172;BME280;40076;52.354;4.970;2022-08-07T03:06:39;102710.69;;;16.53;68.95
54172;BME280;40076;52.354;4.970;2022-08-07T03:09:06;102697.38;;;16.52;69.02
54172;BME280;40076;52.354;4.970;2022-08-07T03:11:34;102695.25;;;16.49;69.13
54172;BME280;40076;52.354;4.970;2022-08-07T03:14:02;102701.81;;;16.48;69.28
54172;BME280;40076;52.354;4.970;2022-08-07T03:16:29;102696.19;;;16.44;69.27
54172;BME280;40076;52.354;4.970;2022-08-07T03:18:56;102697.31;;;16.43;69.53
54172;BME280;40076;52.354;4.970;2022-08-07T03:21:22;102702.28;;;16.41;69.41
54172;BME280;40076;52.354;4.970;2022-08-07T03:23:49;102702.59;;;16.40;69.72
54172;BME280;40076;52.354;4.970;2022-08-07T03:26:17;102701.31;;;16.37;69.81
54172;BME280;40076;52.354;4.970;2022-08-07T03:28:45;102700.00;;;16.35;69.77
54172;BME280;40076;52.354;4.970;2022-08-07T03:31:11;102700.31;;;16.33;69.81
54172;BME280;40076;52.354;4.970;2022-08-07T03:33:49;102697.41;;;16.30;70.00
54172;BME280;40076;52.354;4.970;2022-08-07T03:36:16;102698.53;;;16.29;70.12
54172;BME280;40076;52.354;4.970;2022-08-07T03:38:44;102692.09;;;16.25;70.40
54172;BME280;40076;52.354;4.970;2022-08-07T03:41:11;102688.56;;;16.24;70.39
54172;BME280;40076;52.354;4.970;2022-08-07T03:43:37;102694.31;;;16.23;70.70
54172;BME280;40076;52.354;4.970;2022-08-07T03:46:05;102688.38;;;16.20;70.76
54172;BME280;40076;52.354;4.970;2022-08-07T03:48:32;102688.97;;;16.17;70.80
54172;BME280;40076;52.354;4.970;2022-08-07T03:50:58;102693.97;;;16.15;70.77
54172;BME280;40076;52.354;4.970;2022-08-07T03:53:24;102688.31;;;16.12;70.86
54172;BME280;40076;52.354;4.970;2022-08-07T03:55:50;102684.78;;;16.11;70.90
54172;BME280;40076;52.354;4.970;2022-08-07T03:58:20;102691.34;;;16.10;71.01
54172;BME280;40076;52.354;4.970;2022-08-07T04:00:48;102685.06;;;16.10;71.04
54172;BME280;40076;52.354;4.970;2022-08-07T04:03:14;102678.84;;;16.09;71.05
54172;BME280;40076;52.354;4.970;2022-08-07T04:05:40;102684.59;;;16.08;71.12
54172;BME280;40076;52.354;4.970;2022-08-07T04:08:05;102681.06;;;16.07;71.32
54172;BME280;40076;52.354;4.970;2022-08-07T04:10:32;102682.47;;;16.05;71.38
54172;BME280;40076;52.354;4.970;2022-08-07T04:12:57;102686.31;;;16.04;71.47
54172;BME280;40076;52.354;4.970;2022-08-07T04:15:22;102690.97;;;16.03;71.45
54172;BME280;40076;52.354;4.970;2022-08-07T04:17:48;102686.97;;;16.01;71.34
54172;BME280;40076;52.354;4.970;2022-08-07T04:20:13;102684.53;;;15.99;71.29
54172;BME280;40076;52.354;4.970;2022-08-07T04:22:39;102677.78;;;15.97;71.39
54172;BME280;40076;52.354;4.970;2022-08-07T04:25:06;102678.88;;;15.96;71.57
54172;BME280;40076;52.354;4.970;2022-08-07T04:27:33;102677.59;;;15.93;71.54
54172;BME280;40076;52.354;4.970;2022-08-07T04:29:58;102683.06;;;15.93;71.58
54172;BME280;40076;52.354;4.970;2022-08-07T04:32:24;102685.28;;;15.91;71.50
54172;BME280;40076;52.354;4.970;2022-08-07T04:34:50;102680.94;;;15.90;71.63
54172;BME280;40076;52.354;4.970;2022-08-07T04:37:16;102688.00;;;15.91;71.78
54172;BME280;40076;52.354;4.970;2022-08-07T04:39:41;102694.88;;;15.89;72.09
54172;BME280;40076;52.354;4.970;2022-08-07T04:42:06;102697.59;;;15.89;72.03
54172;BME280;40076;52.354;4.970;2022-08-07T04:44:32;102699.84;;;15.87;72.21
54172;BME280;40076;52.354;4.970;2022-08-07T04:49:43;102701.28;;;15.84;72.49
54172;BME280;40076;52.354;4.970;2022-08-07T04:54:59;102712.47;;;15.82;72.58
54172;BME280;40076;52.354;4.970;2022-08-07T05:00:09;102707.31;;;15.81;72.97
54172;BME280;40076;52.354;4.970;2022-08-07T05:02:44;102710.06;;;15.81;73.03
54172;BME280;40076;52.354;4.970;2022-08-07T05:07:55;102707.31;;;15.81;72.91
54172;BME280;40076;52.354;4.970;2022-08-07T05:10:40;102706.22;;;15.82;73.48
54172;BME280;40076;52.354;4.970;2022-08-07T05:13:29;102709.44;;;15.84;73.52
54172;BME280;40076;52.354;4.970;2022-08-07T05:16:03;102708.34;;;15.85;73.80
54172;BME280;40076;52.354;4.970;2022-08-07T05:18:34;102713.47;;;15.87;74.00
54172;BME280;40076;52.354;4.970;2022-08-07T05:21:02;102717.00;;;15.87;74.35
54172;BME280;40076;52.354;4.970;2022-08-07T05:23:32;102722.13;;;15.89;74.39
54172;BME280;40076;52.354;4.970;2022-08-07T05:26:01;102719.91;;;15.91;74.71
54172;BME280;40076;52.354;4.970;2022-08-07T05:28:29;102718.81;;;15.92;75.00
54172;BME280;40076;52.354;4.970;2022-08-07T05:30:56;102714.66;;;15.94;74.99
54172;BME280;40076;52.354;4.970;2022-08-07T05:33:23;102708.88;;;15.96;75.26
54172;BME280;40076;52.354;4.970;2022-08-07T05:35:50;102696.56;;;15.98;75.25
54172;BME280;40076;52.354;4.970;2022-08-07T05:38:18;102702.53;;;16.00;75.33
54172;BME280;40076;52.354;4.970;2022-08-07T05:40:44;102703.00;;;16.02;75.42
54172;BME280;40076;52.354;4.970;2022-08-07T05:43:10;102712.47;;;16.05;75.78
54172;BME280;40076;52.354;4.970;2022-08-07T05:45:35;102715.41;;;16.08;75.97
54172;BME280;40076;52.354;4.970;2022-08-07T05:48:02;102715.88;;;16.10;76.19
54172;BME280;40076;52.354;4.970;2022-08-07T05:50:29;102711.75;;;16.13;76.14
54172;BME280;40076;52.354;4.970;2022-08-07T05:52:56;102713.03;;;16.15;76.08
54172;BME280;40076;52.354;4.970;2022-08-07T05:55:21;102715.47;;;16.17;76.28
54172;BME280;40076;52.354;4.970;2022-08-07T05:57:47;102714.03;;;16.19;76.61
54172;BME280;40076;52.354;4.970;2022-08-07T06:00:14;102713.41;;;16.23;77.18
54172;BME280;40076;52.354;4.970;2022-08-07T06:02:44;102708.75;;;16.23;77.36
54172;BME280;40076;52.354;4.970;2022-08-07T06:05:12;102718.72;;;16.28;77.25
54172;BME280;40076;52.354;4.970;2022-08-07T06:07:38;102726.31;;;16.31;77.00
54172;BME280;40076;52.354;4.970;2022-08-07T06:10:05;102725.19;;;16.32;76.85
54172;BME280;40076;52.354;4.970;2022-08-07T06:12:30;102720.19;;;16.34;75.89
54172;BME280;40076;52.354;4.970;2022-08-07T06:14:57;102727.78;;;16.37;75.09
54172;BME280;40076;52.354;4.970;2022-08-07T06:17:23;102730.66;;;16.40;74.33
54172;BME280;40076;52.354;4.970;2022-08-07T06:19:48;102739.88;;;16.44;74.05
54172;BME280;40076;52.354;4.970;2022-08-07T06:22:15;102729.91;;;16.48;73.21
54172;BME280;40076;52.354;4.970;2022-08-07T06:24:42;102731.72;;;16.53;73.23
54172;BME280;40076;52.354;4.970;2022-08-07T06:27:07;102729.97;;;16.57;72.22
54172;BME280;40076;52.354;4.970;2022-08-07T06:29:32;102730.47;;;16.59;72.22
54172;BME280;40076;52.354;4.970;2022-08-07T06:31:58;102731.47;;;16.63;71.63
54172;BME280;40076;52.354;4.970;2022-08-07T06:34:24;102734.38;;;16.67;71.17
54172;BME280;40076;52.354;4.970;2022-08-07T06:36:50;102740.03;;;16.70;70.60
54172;BME280;40076;52.354;4.970;2022-08-07T06:39:15;102744.53;;;16.75;69.84
54172;BME280;40076;52.354;4.970;2022-08-07T06:41:44;102750.16;;;16.78;68.95
54172;BME280;40076;52.354;4.970;2022-08-07T06:44:11;102739.44;;;16.82;68.69
54172;BME280;40076;52.354;4.970;2022-08-07T06:46:38;102739.13;;;16.83;68.85
54172;BME280;40076;52.354;4.970;2022-08-07T06:49:04;102749.91;;;16.88;68.53
54172;BME280;40076;52.354;4.970;2022-08-07T06:51:30;102747.34;;;16.92;67.86
54172;BME280;40076;52.354;4.970;2022-08-07T06:53:58;102745.91;;;16.94;67.36
54172;BME280;40076;52.354;4.970;2022-08-07T06:56:29;102748.00;;;16.97;67.17
54172;BME280;40076;52.354;4.970;2022-08-07T06:59:17;102743.53;;;17.02;67.65
54172;BME280;40076;52.354;4.970;2022-08-07T07:01:47;102739.84;;;17.06;67.64
54172;BME280;40076;52.354;4.970;2022-08-07T07:04:13;102740.34;;;17.08;67.50
54172;BME280;40076;52.354;4.970;2022-08-07T07:06:39;102736.16;;;17.11;67.59
54172;BME280;40076;52.354;4.970;2022-08-07T07:09:20;102727.03;;;17.15;67.36
54172;BME280;40076;52.354;4.970;2022-08-07T07:17:03;102739.13;;;17.23;66.80
54172;BME280;40076;52.354;4.970;2022-08-07T07:19:37;102733.00;;;17.26;66.33
54172;BME280;40076;52.354;4.970;2022-08-07T07:22:06;102730.75;;;17.28;66.15
54172;BME280;40076;52.354;4.970;2022-08-07T07:24:32;102726.25;;;17.32;65.95
54172;BME280;40076;52.354;4.970;2022-08-07T07:27:00;102727.56;;;17.34;65.29
54172;BME280;40076;52.354;4.970;2022-08-07T07:29:29;102741.41;;;17.38;65.16
54172;BME280;40076;52.354;4.970;2022-08-07T07:31:58;102736.88;;;17.42;64.93
54172;BME280;40076;52.354;4.970;2022-08-07T07:34:28;102726.44;;;17.44;64.93
54172;BME280;40076;52.354;4.970;2022-08-07T07:37:00;102719.56;;;17.47;64.71
54172;BME280;40076;52.354;4.970;2022-08-07T07:39:28;102726.78;;;17.51;64.65
54172;BME280;40076;52.354;4.970;2022-08-07T07:41:55;102730.00;;;17.53;64.67
54172;BME280;40076;52.354;4.970;2022-08-07T07:44:21;102732.09;;;17.56;64.55
54172;BME280;40076;52.354;4.970;2022-08-07T07:46:48;102714.75;;;17.61;64.31
54172;BME280;40076;52.354;4.970;2022-08-07T07:49:15;102723.13;;;17.64;64.13
54172;BME280;40076;52.354;4.970;2022-08-07T07:51:43;102720.56;;;17.68;63.82
54172;BME280;40076;52.354;4.970;2022-08-07T07:54:10;102715.25;;;17.71;63.44
54172;BME280;40076;52.354;4.970;2022-08-07T07:56:39;102713.78;;;17.74;63.47
54172;BME280;40076;52.354;4.970;2022-08-07T07:59:05;102708.81;;;17.76;63.06
54172;BME280;40076;52.354;4.970;2022-08-07T08:01:32;102704.63;;;17.79;63.26
54172;BME280;40076;52.354;4.970;2022-08-07T08:04:02;102712.50;;;17.80;63.36
54172;BME280;40076;52.354;4.970;2022-08-07T08:06:30;102714.28;;;17.85;63.24
54172;BME280;40076;52.354;4.970;2022-08-07T08:08:59;102709.78;;;17.89;62.99
54172;BME280;40076;52.354;4.970;2022-08-07T08:11:26;102714.59;;;17.92;62.83
54172;BME280;40076;52.354;4.970;2022-08-07T08:13:52;102708.47;;;17.95;62.39
54172;BME280;40076;52.354;4.970;2022-08-07T08:16:19;102703.19;;;17.98;62.33
54172;BME280;40076;52.354;4.970;2022-08-07T08:18:47;102698.34;;;18.04;62.22
54172;BME280;40076;52.354;4.970;2022-08-07T08:21:14;102703.16;;;18.07;62.32
54172;BME280;40076;52.354;4.970;2022-08-07T08:24:00;102697.34;;;18.08;62.28
54172;BME280;40076;52.354;4.970;2022-08-07T08:26:50;102703.47;;;18.14;62.37
54172;BME280;40076;52.354;4.970;2022-08-07T08:29:36;102702.50;;;18.19;62.69
54172;BME280;40076;52.354;4.970;2022-08-07T08:32:04;102701.53;;;18.23;62.50
54172;BME280;40076;52.354;4.970;2022-08-07T08:34:31;102702.47;;;18.27;62.31
54172;BME280;40076;52.354;4.970;2022-08-07T08:36:58;102703.78;;;18.30;61.79
54172;BME280;40076;52.354;4.970;2022-08-07T08:39:27;102700.34;;;18.33;61.55
54172;BME280;40076;52.354;4.970;2022-08-07T08:42:01;102698.91;;;18.35;61.56
54172;BME280;40076;52.354;4.970;2022-08-07T08:44:57;102702.59;;;18.39;61.67
54172;BME280;40076;52.354;4.970;2022-08-07T08:50:53;102697.25;;;18.51;61.28
54172;BME280;40076;52.354;4.970;2022-08-07T08:56:10;102702.72;;;18.60;60.44
54172;BME280;40076;52.354;4.970;2022-08-07T08:59:01;102696.75;;;18.67;60.53
54172;BME280;40076;52.354;4.970;2022-08-07T09:01:30;102695.25;;;18.69;59.46
54172;BME280;40076;52.354;4.970;2022-08-07T09:04:09;102700.91;;;18.73;58.42
54172;BME280;40076;52.354;4.970;2022-08-07T09:07:00;102693.97;;;18.75;58.23
54172;BME280;40076;52.354;4.970;2022-08-07T09:10:23;102698.13;;;18.81;58.19
54172;BME280;40076;52.354;4.970;2022-08-07T09:15:15;102705.50;;;18.89;57.61
54172;BME280;40076;52.354;4.970;2022-08-07T09:20:29;102701.59;;;18.99;57.25
54172;BME280;40076;52.354;4.970;2022-08-07T09:23:12;102703.31;;;19.04;56.91
54172;BME280;40076;52.354;4.970;2022-08-07T09:28:30;102692.44;;;19.16;56.88
54172;BME280;40076;52.354;4.970;2022-08-07T09:31:05;102707.47;;;19.10;56.29
54172;BME280;40076;52.354;4.970;2022-08-07T09:36:29;102689.84;;;19.19;56.17
54172;BME280;40076;52.354;4.970;2022-08-07T09:42:00;102694.97;;;19.30;56.05
54172;BME280;40076;52.354;4.970;2022-08-07T09:44:38;102685.41;;;19.36;55.12
54172;BME280;40076;52.354;4.970;2022-08-07T09:47:16;102683.09;;;19.38;55.26
54172;BME280;40076;52.354;4.970;2022-08-07T09:49:54;102680.19;;;19.43;54.75
54172;BME280;40076;52.354;4.970;2022-08-07T09:55:15;102683.34;;;19.53;52.63
54172;BME280;40076;52.354;4.970;2022-08-07T10:00:42;102672.91;;;19.68;53.06
54172;BME280;40076;52.354;4.970;2022-08-07T10:03:39;102672.03;;;19.76;52.80
54172;BME280;40076;52.354;4.970;2022-08-07T10:06:18;102665.41;;;19.77;52.08
54172;BME280;40076;52.354;4.970;2022-08-07T10:09:28;102664.88;;;19.83;51.32
54172;BME280;40076;52.354;4.970;2022-08-07T10:17:50;102651.28;;;19.99;50.57
54172;BME280;40076;52.354;4.970;2022-08-07T10:20:58;102651.19;;;19.95;50.76
54172;BME280;40076;52.354;4.970;2022-08-07T10:25:57;102649.81;;;20.01;49.93
54172;BME280;40076;52.354;4.970;2022-08-07T10:28:30;102644.09;;;20.07;49.89
54172;BME280;40076;52.354;4.970;2022-08-07T10:34:04;102647.22;;;20.17;50.12
54172;BME280;40076;52.354;4.970;2022-08-07T10:39:36;102631.00;;;20.24;48.54
54172;BME280;40076;52.354;4.970;2022-08-07T10:44:44;102630.09;;;20.32;48.95
54172;BME280;40076;52.354;4.970;2022-08-07T10:47:30;102632.78;;;20.41;49.51
54172;BME280;40076;52.354;4.970;2022-08-07T10:50:11;102625.56;;;20.36;49.26
54172;BME280;40076;52.354;4.970;2022-08-07T10:56:09;102621.69;;;20.50;50.11
54172;BME280;40076;52.354;4.970;2022-08-07T11:04:06;102601.06;;;20.68;50.82
54172;BME280;40076;52.354;4.970;2022-08-07T11:09:12;102604.84;;;20.75;50.15
54172;BME280;40076;52.354;4.970;2022-08-07T11:11:47;102604.97;;;20.79;50.67
54172;BME280;40076;52.354;4.970;2022-08-07T11:14:38;102604.38;;;20.86;50.37
54172;BME280;40076;52.354;4.970;2022-08-07T11:17:11;102599.00;;;20.89;50.34
54172;BME280;40076;52.354;4.970;2022-08-07T11:22:39;102593.81;;;21.00;50.88
54172;BME280;40076;52.354;4.970;2022-08-07T11:30:50;102602.03;;;21.12;49.48
54172;BME280;40076;52.354;4.970;2022-08-07T11:33:28;102590.81;;;21.17;49.84
54172;BME280;40076;52.354;4.970;2022-08-07T11:36:46;102586.78;;;21.27;49.29
54172;BME280;40076;52.354;4.970;2022-08-07T11:39:35;102595.47;;;21.29;49.66
54172;BME280;40076;52.354;4.970;2022-08-07T11:44:58;102591.69;;;21.33;49.44
54172;BME280;40076;52.354;4.970;2022-08-07T11:47:52;102589.47;;;21.39;50.05
54172;BME280;40076;52.354;4.970;2022-08-07T11:58:31;102570.91;;;21.64;49.84
54172;BME280;40076;52.354;4.970;2022-08-07T12:01:20;102564.47;;;21.72;49.98
54172;BME280;40076;52.354;4.970;2022-08-07T12:04:05;102565.78;;;21.78;50.04
54172;BME280;40076;52.354;4.970;2022-08-07T12:09:14;102569.22;;;21.75;49.27
54172;BME280;40076;52.354;4.970;2022-08-07T12:12:05;102565.44;;;21.79;49.60
54172;BME280;40076;52.354;4.970;2022-08-07T12:14:37;102557.53;;;21.78;49.66
54172;BME280;40076;52.354;4.970;2022-08-07T12:17:09;102563.50;;;21.80;48.94
54172;BME280;40076;52.354;4.970;2022-08-07T12:19:57;102567.47;;;21.82;49.08
54172;BME280;40076;52.354;4.970;2022-08-07T12:28:03;102555.16;;;21.92;48.02
54172;BME280;40076;52.354;4.970;2022-08-07T12:30:36;102565.81;;;21.93;47.51
54172;BME280;40076;52.354;4.970;2022-08-07T12:33:06;102563.16;;;21.97;46.55
54172;BME280;40076;52.354;4.970;2022-08-07T12:35:34;102555.00;;;22.01;45.95
54172;BME280;40076;52.354;4.970;2022-08-07T12:38:03;102548.00;;;22.03;45.91
54172;BME280;40076;52.354;4.970;2022-08-07T12:40:31;102563.00;;;22.06;46.12
54172;BME280;40076;52.354;4.970;2022-08-07T12:43:04;102555.28;;;22.11;45.52
54172;BME280;40076;52.354;4.970;2022-08-07T12:45:53;102556.97;;;22.16;45.67
54172;BME280;40076;52.354;4.970;2022-08-07T12:48:40;102553.13;;;22.20;45.70
54172;BME280;40076;52.354;4.970;2022-08-07T12:51:16;102553.22;;;22.24;45.57
54172;BME280;40076;52.354;4.970;2022-08-07T12:54:07;102548.22;;;22.29;45.45
54172;BME280;40076;52.354;4.970;2022-08-07T12:56:41;102543.19;;;22.31;45.14
54172;BME280;40076;52.354;4.970;2022-08-07T12:59:11;102534.22;;;22.35;44.90
54172;BME280;40076;52.354;4.970;2022-08-07T13:02:10;102528.41;;;22.40;44.18
54172;BME280;40076;52.354;4.970;2022-08-07T13:13:16;102532.81;;;22.60;44.67
54172;BME280;40076;52.354;4.970;2022-08-07T13:21:33;102529.03;;;22.68;43.14
54172;BME280;40076;52.354;4.970;2022-08-07T13:24:22;102536.59;;;22.71;43.81
54172;BME280;40076;52.354;4.970;2022-08-07T13:27:18;102527.72;;;22.78;44.15
54172;BME280;40076;52.354;4.970;2022-08-07T13:30:00;102530.19;;;22.83;44.24
54172;BME280;40076;52.354;4.970;2022-08-07T13:35:21;102525.56;;;22.87;44.18
54172;BME280;40076;52.354;4.970;2022-08-07T13:40:42;102520.09;;;22.90;44.15
54172;BME280;40076;52.354;4.970;2022-08-07T13:43:12;102513.53;;;22.95;44.25
54172;BME280;40076;52.354;4.970;2022-08-07T13:45:43;102527.09;;;23.03;44.34
54172;BME280;40076;52.354;4.970;2022-08-07T13:48:10;102516.91;;;23.07;44.00
54172;BME280;40076;52.354;4.970;2022-08-07T13:50:39;102527.66;;;23.13;43.71
54172;BME280;40076;52.354;4.970;2022-08-07T13:53:05;102523.00;;;23.17;43.94
54172;BME280;40076;52.354;4.970;2022-08-07T13:55:42;102515.91;;;23.16;43.76
54172;BME280;40076;52.354;4.970;2022-08-07T13:58:13;102523.00;;;23.17;43.78
54172;BME280;40076;52.354;4.970;2022-08-07T14:01:08;102519.09;;;23.18;42.96
54172;BME280;40076;52.354;4.970;2022-08-07T14:03:37;102533.38;;;23.23;44.02
54172;BME280;40076;52.354;4.970;2022-08-07T14:06:08;102521.47;;;23.19;42.70
54172;BME280;40076;52.354;4.970;2022-08-07T14:08:39;102527.06;;;23.23;43.12
54172;BME280;40076;52.354;4.970;2022-08-07T14:11:11;102524.66;;;23.21;42.76
54172;BME280;40076;52.354;4.970;2022-08-07T14:13:39;102536.13;;;23.23;42.94
54172;BME280;40076;52.354;4.970;2022-08-07T14:16:13;102522.34;;;23.23;42.96
54172;BME280;40076;52.354;4.970;2022-08-07T14:18:48;102523.19;;;23.27;43.13
54172;BME280;40076;52.354;4.970;2022-08-07T14:21:22;102526.84;;;23.31;42.87
54172;BME280;40076;52.354;4.970;2022-08-07T14:23:55;102526.47;;;23.33;42.47
54172;BME280;40076;52.354;4.970;2022-08-07T14:26:25;102526.91;;;23.35;42.59
54172;BME280;40076;52.354;4.970;2022-08-07T14:28:54;102532.50;;;23.38;42.42
54172;BME280;40076;52.354;4.970;2022-08-07T14:31:23;102534.91;;;23.40;41.85
54172;BME280;40076;52.354;4.970;2022-08-07T14:33:51;102528.22;;;23.41;41.77
54172;BME280;40076;52.354;4.970;2022-08-07T14:36:18;102521.59;;;23.45;41.55
54172;BME280;40076;52.354;4.970;2022-08-07T14:38:45;102518.47;;;23.47;41.30
54172;BME280;40076;52.354;4.970;2022-08-07T14:41:21;102513.31;;;23.45;41.43
54172;BME280;40076;52.354;4.970;2022-08-07T14:43:58;102519.75;;;23.50;41.42
54172;BME280;40076;52.354;4.970;2022-08-07T14:46:30;102514.28;;;23.53;41.28
54172;BME280;40076;52.354;4.970;2022-08-07T14:48:56;102514.72;;;23.55;41.28
54172;BME280;40076;52.354;4.970;2022-08-07T14:51:24;102507.59;;;23.54;40.67
54172;BME280;40076;52.354;4.970;2022-08-07T14:53:52;102503.22;;;23.53;40.87
54172;BME280;40076;52.354;4.970;2022-08-07T14:56:20;102495.69;;;23.50;40.25
54172;BME280;40076;52.354;4.970;2022-08-07T14:58:55;102510.56;;;23.45;40.59
54172;BME280;40076;52.354;4.970;2022-08-07T15:01:31;102503.88;;;23.46;40.87
54172;BME280;40076;52.354;4.970;2022-08-07T15:03:59;102499.22;;;23.51;41.18
54172;BME280;40076;52.354;4.970;2022-08-07T15:06:28;102514.28;;;23.53;41.22